Time;durP1;ratioP1;P1;durP2;ratioP2;P2;SDS_P1;SDS_P2;PMS_P1;PMS_P2;Temp;Humidity;BMP_temperature;BMP_pressure;BME280_temperature;BME280_humidity;BME280_pressure;Samples;Min_cycle;Max_cycle;Signal;HPM_P1;HPM_P2
2024/01/22 00:02:04;;;;;;;;;;;;;;;4.49;60.54;99933.16;67655;1280;1016508;-62
2024/01/22 00:05:07;;;;;;;;;;;;;;;4.53;60.30;99933.95;67651;1280;1016442;-69
2024/01/22 00:08:10;;;;;;;;;;;;;;;4.48;60.30;99934.90;67595;1280;1016350;-66
2024/01/22 00:11:12;;;;;;;;;;;;;;;4.44;60.30;99943.48;67680;1280;1016092;-70
2024/01/22 00:14:15;;;;;;;;;;;;;;;4.39;60.23;99948.58;67655;1280;1016099;-69
2024/01/22 00:20:38;;;;;;;;;;;;;;;4.52;59.55;99945.23;67624;1280;1016470;-70
2024/01/22 00:23:41;;;;;;;;;;;;;;;4.44;59.82;99948.31;67668;1280;1016476;-60
2024/01/22 00:26:43;;;;;;;;;;;;;;;4.28;60.18;99951.36;67611;1280;1016406;-63
2024/01/22 00:29:46;;;;;;;;;;;;;;;4.01;60.93;99940.40;67638;1280;1016432;-69
2024/01/22 00:32:50;;;;;;;;;;;;;;;3.97;61.06;99931.98;67649;1280;1016412;-69
2024/01/22 00:35:53;;;;;;;;;;;;;;;3.99;60.77;99923.11;67643;1280;1016313;-68
2024/01/22 00:38:56;;;;;;;;;;;;;;;3.90;60.77;99920.48;67597;1280;1016996;-68
2024/01/22 00:41:59;;;;;;;;;;;;;;;3.76;60.88;99916.20;67659;1280;1016438;-69
2024/01/22 00:45:02;;;;;;;;;;;;;;;3.66;60.74;99917.41;67659;1280;1019176;-69
2024/01/22 00:48:04;;;;;;;;;;;;;;;3.57;60.91;99912.53;67606;1280;1016435;-69
2024/01/22 00:51:07;;;;;;;;;;;;;;;3.38;61.25;99898.98;67627;1280;1016413;-70
2024/01/22 00:54:10;;;;;;;;;;;;;;;3.37;61.09;99894.84;67637;1280;1016437;-68
2024/01/22 00:57:13;;;;;;;;;;;;;;;3.41;60.72;99890.29;67643;1280;1016212;-66
2024/01/22 01:00:16;;;;;;;;;;;;;;;3.36;60.72;99884.64;67671;1280;1016844;-69
2024/01/22 01:03:18;;;;;;;;;;;;;;;3.38;60.51;99878.73;67602;1280;1016365;-69
2024/01/22 01:06:21;;;;;;;;;;;;;;;3.36;60.41;99863.22;67672;1280;1016405;-60
2024/01/22 01:09:24;;;;;;;;;;;;;;;3.29;60.16;99842.91;67602;1280;1016245;-63
2024/01/22 01:12:27;;;;;;;;;;;;;;;3.25;59.89;99827.07;67629;1280;1016617;-64
2024/01/22 01:15:29;;;;;;;;;;;;;;;3.22;59.63;99821.23;67628;1280;1016305;-69
2024/01/22 01:18:32;;;;;;;;;;;;;;;3.25;59.15;99816.86;67631;1280;1016477;-69
2024/01/22 01:21:35;;;;;;;;;;;;;;;3.15;59.10;99817.88;67641;1280;1016405;-69
2024/01/22 01:24:37;;;;;;;;;;;;;;;3.07;59.15;99810.38;67651;1280;1016763;-69
2024/01/22 01:27:40;;;;;;;;;;;;;;;3.12;58.88;99813.77;67644;1280;1016435;-70
2024/01/22 01:30:43;;;;;;;;;;;;;;;3.04;58.68;99815.61;67646;1280;1016296;-68
2024/01/22 01:33:45;;;;;;;;;;;;;;;3.04;58.34;99821.15;67644;1280;1016274;-69
2024/01/22 01:36:48;;;;;;;;;;;;;;;3.03;58.24;99823.77;67635;1280;1016329;-66
2024/01/22 01:39:51;;;;;;;;;;;;;;;3.04;58.04;99820.97;67651;1280;1016425;-69
2024/01/22 01:42:54;;;;;;;;;;;;;;;3.00;57.98;99824.81;67682;1280;1016394;-69
2024/01/22 01:45:56;;;;;;;;;;;;;;;3.04;57.86;99823.73;67617;1280;1016411;-69
2024/01/22 01:48:59;;;;;;;;;;;;;;;3.03;57.69;99814.26;67684;1280;1016302;-69
2024/01/22 01:52:02;;;;;;;;;;;;;;;2.95;57.71;99811.59;67682;1280;1016407;-70
2024/01/22 01:55:05;;;;;;;;;;;;;;;2.97;57.50;99812.79;67598;1280;1016163;-69
2024/01/22 01:58:08;;;;;;;;;;;;;;;3.05;57.17;99806.44;67677;1280;1015907;-68
2024/01/22 02:01:10;;;;;;;;;;;;;;;3.07;57.23;99801.23;67620;1280;1018344;-67
2024/01/22 02:04:13;;;;;;;;;;;;;;;3.12;56.74;99800.28;67616;1280;1016479;-69
2024/01/22 02:07:16;;;;;;;;;;;;;;;3.00;57.00;99800.46;67679;1280;1016344;-69
2024/01/22 02:10:18;;;;;;;;;;;;;;;2.82;57.60;99793.63;67617;1280;1016441;-69
2024/01/22 02:13:21;;;;;;;;;;;;;;;2.94;57.14;99794.16;67633;1280;1016509;-62
2024/01/22 02:16:24;;;;;;;;;;;;;;;2.87;57.19;99787.70;67639;1280;1016491;-69
2024/01/22 02:19:26;;;;;;;;;;;;;;;2.81;57.32;99789.15;67662;1280;1016151;-69
2024/01/22 02:22:29;;;;;;;;;;;;;;;2.77;57.10;99795.43;67637;1280;1016291;-63
2024/01/22 02:25:32;;;;;;;;;;;;;;;2.75;57.10;99790.96;67678;1280;1016764;-67
2024/01/22 02:28:34;;;;;;;;;;;;;;;2.76;56.62;99780.42;67659;1280;1016009;-69
2024/01/22 02:31:37;;;;;;;;;;;;;;;2.76;56.37;99779.39;67631;1280;1016335;-70
2024/01/22 02:34:40;;;;;;;;;;;;;;;2.64;56.65;99789.56;67659;1280;1016925;-69
2024/01/22 02:37:43;;;;;;;;;;;;;;;2.55;56.97;99792.27;67673;1280;1016201;-69
2024/01/22 02:40:45;;;;;;;;;;;;;;;2.60;56.71;99788.58;67604;1280;1016510;-69
2024/01/22 02:43:48;;;;;;;;;;;;;;;2.59;56.52;99781.85;67667;1280;1016431;-69
2024/01/22 02:46:51;;;;;;;;;;;;;;;2.53;56.50;99785.39;67612;1280;1016412;-68
2024/01/22 02:49:53;;;;;;;;;;;;;;;2.50;56.44;99781.80;67620;1280;1016485;-68
2024/01/22 02:52:56;;;;;;;;;;;;;;;2.59;56.26;99783.59;67679;1280;1016390;-68
2024/01/22 02:55:59;;;;;;;;;;;;;;;2.64;56.11;99770.40;67639;1280;1016473;-69
2024/01/22 02:59:03;;;;;;;;;;;;;;;2.55;56.03;99764.29;67627;1280;1016410;-65
2024/01/22 03:02:06;;;;;;;;;;;;;;;2.49;55.85;99765.05;67623;1280;1016339;-69
2024/01/22 03:05:08;;;;;;;;;;;;;;;2.49;55.81;99756.77;67653;1280;1016299;-65
2024/01/22 03:08:11;;;;;;;;;;;;;;;2.43;55.57;99758.23;67662;1280;1016149;-65
2024/01/22 03:11:14;;;;;;;;;;;;;;;2.41;55.31;99760.33;67630;1280;1016459;-67
2024/01/22 03:14:17;;;;;;;;;;;;;;;2.39;55.30;99757.92;67675;1280;1017622;-68
2024/01/22 03:17:20;;;;;;;;;;;;;;;2.42;55.18;99754.09;67629;1280;1016295;-68
2024/01/22 03:20:23;;;;;;;;;;;;;;;2.43;54.88;99749.95;67679;1280;1016383;-67
2024/01/22 03:23:25;;;;;;;;;;;;;;;2.37;54.66;99746.05;67634;1280;1016387;-68
2024/01/22 03:26:28;;;;;;;;;;;;;;;2.28;54.58;99748.74;67582;1280;1016516;-68
2024/01/22 03:29:31;;;;;;;;;;;;;;;2.22;54.61;99749.87;67684;1280;1016268;-68
2024/01/22 03:32:33;;;;;;;;;;;;;;;2.13;54.43;99743.77;67649;1280;1016478;-59
2024/01/22 03:35:36;;;;;;;;;;;;;;;2.10;54.42;99738.27;67466;1282;1016852;-69
2024/01/22 03:38:39;;;;;;;;;;;;;;;2.04;54.27;99734.38;65194;1282;5365247;-66
2024/01/22 03:41:51;;;;;;;;;;;;;;;1.98;54.17;99730.13;67458;1282;1016332;-65
2024/01/22 03:44:54;;;;;;;;;;;;;;;2.00;54.32;99722.35;67530;1282;1016448;-67
2024/01/22 03:47:57;;;;;;;;;;;;;;;2.12;54.19;99728.08;67495;1282;1016722;-69
2024/01/22 03:50:59;;;;;;;;;;;;;;;2.14;53.86;99727.36;67517;1282;1016516;-68
2024/01/22 03:54:02;;;;;;;;;;;;;;;2.06;53.73;99714.67;67505;1282;1016355;-61
2024/01/22 03:57:07;;;;;;;;;;;;;;;2.04;53.54;99716.08;67534;1282;1016471;-67
2024/01/22 04:00:10;;;;;;;;;;;;;;;2.07;53.40;99714.14;67518;1282;1016326;-59
2024/01/22 04:03:12;;;;;;;;;;;;;;;2.07;53.39;99708.11;67467;1282;1016358;-69
2024/01/22 04:06:15;;;;;;;;;;;;;;;2.18;52.95;99711.41;67498;1282;1016210;-69
2024/01/22 04:09:18;;;;;;;;;;;;;;;2.28;53.11;99705.94;67537;1282;1016063;-65
2024/01/22 04:12:20;;;;;;;;;;;;;;;2.31;53.02;99703.67;67494;1282;1016398;-67
2024/01/22 04:15:23;;;;;;;;;;;;;;;2.31;52.58;99706.09;67513;1282;1016390;-64
2024/01/22 04:18:26;;;;;;;;;;;;;;;2.30;52.49;99704.88;67494;1282;1018177;-68
2024/01/22 04:21:29;;;;;;;;;;;;;;;2.21;52.96;99701.71;67499;1282;1016941;-63
2024/01/22 04:24:31;;;;;;;;;;;;;;;2.42;52.63;99697.65;67554;1282;1016456;-59
2024/01/22 04:27:34;;;;;;;;;;;;;;;2.45;52.17;99690.70;67527;1282;1016402;-61
2024/01/22 04:30:37;;;;;;;;;;;;;;;2.38;52.11;99685.96;67485;1282;1016496;-68
2024/01/22 04:33:40;;;;;;;;;;;;;;;2.04;53.14;99682.96;67581;1280;1016838;-68
2024/01/22 04:36:42;;;;;;;;;;;;;;;2.01;52.98;99683.52;67682;1280;1016489;-68
2024/01/22 04:39:45;;;;;;;;;;;;;;;1.87;53.26;99683.86;67620;1280;1016293;-66
2024/01/22 04:42:48;;;;;;;;;;;;;;;1.80;53.08;99686.69;67665;1280;1016901;-67
2024/01/22 04:45:50;;;;;;;;;;;;;;;1.76;53.63;99684.51;67660;1280;1016548;-65
2024/01/22 04:48:53;;;;;;;;;;;;;;;1.95;53.00;99677.73;67589;1280;1016437;-63
2024/01/22 04:51:56;;;;;;;;;;;;;;;2.19;52.48;99679.14;67681;1280;1015991;-67
2024/01/22 04:54:58;;;;;;;;;;;;;;;2.09;52.14;99673.40;67648;1280;1016348;-68
2024/01/22 04:58:01;;;;;;;;;;;;;;;2.06;52.31;99663.95;67583;1280;1016419;-67
2024/01/22 05:01:04;;;;;;;;;;;;;;;2.11;52.33;99658.38;67667;1280;1016495;-65
2024/01/22 05:04:06;;;;;;;;;;;;;;;2.02;52.21;99652.27;67641;1280;1016343;-67
2024/01/22 05:07:09;;;;;;;;;;;;;;;2.04;52.30;99648.80;67611;1280;1016657;-67
2024/01/22 05:10:13;;;;;;;;;;;;;;;2.11;52.10;99644.38;67638;1280;1016479;-67
2024/01/22 05:13:16;;;;;;;;;;;;;;;2.27;51.81;99644.86;67678;1280;1016532;-68
2024/01/22 05:16:18;;;;;;;;;;;;;;;2.28;51.30;99637.94;67637;1280;1015975;-67
2024/01/22 05:19:21;;;;;;;;;;;;;;;2.21;51.48;99635.80;67586;1280;1016343;-68
2024/01/22 05:22:24;;;;;;;;;;;;;;;2.18;51.38;99631.17;67654;1280;1016344;-62
2024/01/22 05:25:27;;;;;;;;;;;;;;;2.07;51.20;99616.33;67657;1280;1016171;-69
2024/01/22 05:28:29;;;;;;;;;;;;;;;1.82;51.99;99620.80;67603;1280;1016387;-65
2024/01/22 05:31:32;;;;;;;;;;;;;;;1.89;51.75;99615.70;67679;1280;1016420;-68
2024/01/22 05:34:35;;;;;;;;;;;;;;;1.97;51.59;99612.66;67620;1280;1016419;-68
2024/01/22 05:37:37;;;;;;;;;;;;;;;2.01;51.42;99612.09;67613;1280;1016500;-68
2024/01/22 05:40:40;;;;;;;;;;;;;;;2.09;51.13;99606.80;67647;1280;1016381;-68
2024/01/22 05:43:43;;;;;;;;;;;;;;;2.05;51.25;99599.44;67658;1280;1016281;-67
2024/01/22 05:46:45;;;;;;;;;;;;;;;2.05;51.26;99593.56;67603;1280;1016531;-61
2024/01/22 05:49:48;;;;;;;;;;;;;;;2.14;50.87;99585.86;67654;1280;1016481;-68
2024/01/22 05:52:51;;;;;;;;;;;;;;;2.14;50.84;99577.75;67623;1280;1016384;-67
2024/01/22 05:55:54;;;;;;;;;;;;;;;2.10;50.96;99569.52;67578;1280;1016399;-68
2024/01/22 05:58:57;;;;;;;;;;;;;;;2.16;50.63;99563.38;67643;1280;1016489;-68
2024/01/22 06:02:00;;;;;;;;;;;;;;;2.24;50.18;99564.48;67602;1280;1016456;-68
2024/01/22 06:05:03;;;;;;;;;;;;;;;2.21;50.02;99571.24;67632;1280;1016348;-68
2024/01/22 06:08:06;;;;;;;;;;;;;;;2.07;50.31;99564.55;67652;1280;1016497;-68
2024/01/22 06:11:08;;;;;;;;;;;;;;;2.15;50.20;99561.70;67581;1280;1016238;-67
2024/01/22 06:14:11;;;;;;;;;;;;;;;2.12;50.47;99561.91;67653;1280;1016406;-68
2024/01/22 06:17:14;;;;;;;;;;;;;;;2.12;50.20;99556.38;67632;1280;1016251;-68
2024/01/22 06:20:16;;;;;;;;;;;;;;;2.06;50.49;99547.31;67602;1280;1017064;-68
2024/01/22 06:23:19;;;;;;;;;;;;;;;2.07;50.38;99543.86;67675;1280;1016326;-68
2024/01/22 06:26:22;;;;;;;;;;;;;;;2.06;50.54;99536.11;67649;1280;1016362;-67
2024/01/22 06:29:25;;;;;;;;;;;;;;;2.12;50.14;99533.09;67625;1280;1016453;-66
2024/01/22 06:32:27;;;;;;;;;;;;;;;2.14;50.24;99538.91;67653;1280;1015926;-59
2024/01/22 06:35:30;;;;;;;;;;;;;;;2.02;50.44;99538.07;67667;1280;1016174;-67
2024/01/22 06:38:34;;;;;;;;;;;;;;;2.45;49.51;99531.02;67610;1280;1016397;-64
2024/01/22 06:41:37;;;;;;;;;;;;;;;2.45;49.17;99531.88;67580;1280;1016401;-67
2024/01/22 06:44:39;;;;;;;;;;;;;;;2.47;49.12;99529.41;67628;1280;1016373;-68
2024/01/22 06:47:42;;;;;;;;;;;;;;;2.64;49.06;99525.86;67661;1280;1016443;-67
2024/01/22 06:50:45;;;;;;;;;;;;;;;2.68;48.93;99514.23;67621;1280;1015758;-63
2024/01/22 06:53:47;;;;;;;;;;;;;;;2.75;48.76;99513.41;67654;1280;1016399;-67
2024/01/22 06:56:50;;;;;;;;;;;;;;;2.83;48.59;99510.66;67625;1280;1016390;-65
2024/01/22 06:59:55;;;;;;;;;;;;;;;2.84;48.43;99498.02;67612;1280;1016728;-68
2024/01/22 07:02:58;;;;;;;;;;;;;;;2.90;48.35;99489.98;67645;1280;1017451;-67
2024/01/22 07:06:01;;;;;;;;;;;;;;;2.98;48.07;99490.35;67600;1280;1016466;-68
2024/01/22 07:09:06;;;;;;;;;;;;;;;3.06;48.06;99490.52;67647;1280;1015992;-68
2024/01/22 07:12:08;;;;;;;;;;;;;;;3.17;47.84;99491.02;67652;1280;1016105;-68
2024/01/22 07:15:12;;;;;;;;;;;;;;;3.31;47.73;99477.24;67580;1280;1016470;-68
2024/01/22 07:18:15;;;;;;;;;;;;;;;3.53;47.49;99470.71;67619;1280;1016616;-68
2024/01/22 07:21:17;;;;;;;;;;;;;;;3.70;47.39;99464.13;67609;1280;1016469;-67
2024/01/22 07:24:20;;;;;;;;;;;;;;;3.86;47.26;99461.67;67636;1280;1016041;-68
2024/01/22 07:27:23;;;;;;;;;;;;;;;3.96;47.24;99457.30;67606;1280;1016056;-63
2024/01/22 07:30:26;;;;;;;;;;;;;;;4.14;46.31;99452.71;67611;1280;1016354;-63
2024/01/22 07:33:30;;;;;;;;;;;;;;;4.25;46.66;99441.34;67661;1280;1016150;-64
2024/01/22 07:36:32;;;;;;;;;;;;;;;4.58;46.06;99436.69;67648;1278;1017089;-67
2024/01/22 07:39:35;;;;;;;;;;;;;;;4.79;45.58;99429.55;67642;1280;1016104;-67
2024/01/22 07:42:38;;;;;;;;;;;;;;;4.92;45.64;99436.46;67585;1280;1016500;-67
2024/01/22 07:45:41;;;;;;;;;;;;;;;4.95;45.55;99435.52;67636;1280;1016470;-68
2024/01/22 07:48:44;;;;;;;;;;;;;;;4.90;46.20;99431.14;67606;1280;1016206;-67
2024/01/22 07:51:46;;;;;;;;;;;;;;;5.45;45.71;99432.34;67625;1280;1017981;-64
2024/01/22 07:54:49;;;;;;;;;;;;;;;5.78;45.19;99433.90;67638;1280;1016428;-68
2024/01/22 07:57:52;;;;;;;;;;;;;;;5.82;44.83;99425.11;67605;1280;1016460;-63
2024/01/22 08:00:55;;;;;;;;;;;;;;;5.83;45.07;99425.77;67622;1280;1016577;-68
2024/01/22 08:03:57;;;;;;;;;;;;;;;6.21;45.04;99420.55;67628;1280;1016427;-68
2024/01/22 08:07:02;;;;;;;;;;;;;;;6.65;43.99;99417.34;67581;1280;1016412;-68
2024/01/22 08:10:05;;;;;;;;;;;;;;;6.87;44.26;99418.09;67642;1280;1016484;-68
2024/01/22 08:13:08;;;;;;;;;;;;;;;6.98;43.76;99405.73;67664;1280;1016025;-60
2024/01/22 08:16:12;;;;;;;;;;;;;;;7.19;43.76;99401.10;67582;1280;1016282;-68
2024/01/22 08:19:14;;;;;;;;;;;;;;;7.35;43.40;99398.08;67578;1280;1016309;-68
2024/01/22 08:22:17;;;;;;;;;;;;;;;7.45;42.53;99388.80;67611;1280;1016927;-68
2024/01/22 08:25:27;;;;;;;;;;;;;;;7.45;41.92;99379.55;67635;1280;1016147;-68
2024/01/22 08:28:33;;;;;;;;;;;;;;;7.54;42.10;99375.73;67611;1280;1016038;-67
2024/01/22 08:31:35;;;;;;;;;;;;;;;7.66;42.24;99374.93;67626;1280;1016391;-68
2024/01/22 08:34:38;;;;;;;;;;;;;;;7.65;42.14;99367.98;67606;1280;1016293;-69
2024/01/22 08:37:41;;;;;;;;;;;;;;;7.71;41.41;99368.82;67574;1280;1016185;-66
2024/01/22 08:40:45;;;;;;;;;;;;;;;7.61;41.60;99360.86;67622;1280;1016379;-61
2024/01/22 08:44:05;;;;;;;;;;;;;;;7.71;41.85;99360.28;67598;1280;1017369;-63
2024/01/22 08:47:26;;;;;;;;;;;;;;;7.73;41.28;99356.19;67635;1280;1016463;-63
2024/01/22 08:50:29;;;;;;;;;;;;;;;7.78;41.07;99354.78;67584;1280;1016434;-67
2024/01/22 08:53:31;;;;;;;;;;;;;;;7.71;41.18;99352.30;67593;1280;1016700;-64
2024/01/22 08:56:34;;;;;;;;;;;;;;;8.00;41.10;99354.58;67641;1280;1016431;-63
2024/01/22 08:59:37;;;;;;;;;;;;;;;8.06;41.11;99351.36;67605;1280;1016106;-63
2024/01/22 09:02:40;;;;;;;;;;;;;;;8.36;40.84;99346.06;67573;1280;1016393;-68
2024/01/22 09:05:43;;;;;;;;;;;;;;;8.86;40.84;99343.15;67592;1280;1015789;-68
2024/01/22 09:08:46;;;;;;;;;;;;;;;9.51;40.07;99340.84;67640;1280;1016389;-69
2024/01/22 09:11:49;;;;;;;;;;;;;;;10.18;38.74;99339.61;67581;1280;1016091;-69
2024/01/22 09:14:52;;;;;;;;;;;;;;;10.53;37.94;99333.67;67636;1280;1016520;-68
2024/01/22 09:17:54;;;;;;;;;;;;;;;10.59;37.63;99330.91;67610;1280;1016285;-69
2024/01/22 09:20:59;;;;;;;;;;;;;;;10.60;37.25;99320.00;67574;1280;1016252;-69
2024/01/22 09:24:02;;;;;;;;;;;;;;;10.71;36.92;99314.37;67630;1280;1016312;-69
2024/01/22 09:27:05;;;;;;;;;;;;;;;10.77;36.88;99312.27;67609;1280;1016040;-69
2024/01/22 09:30:07;;;;;;;;;;;;;;;10.62;37.13;99317.05;67611;1280;1016076;-69
2024/01/22 09:33:10;;;;;;;;;;;;;;;10.56;37.08;99310.96;67620;1280;1016441;-69
2024/01/22 09:36:13;;;;;;;;;;;;;;;10.73;36.97;99310.73;67570;1280;1017695;-69
2024/01/22 09:39:16;;;;;;;;;;;;;;;10.83;36.83;99310.39;67603;1280;1015896;-69
2024/01/22 09:42:19;;;;;;;;;;;;;;;10.93;36.51;99305.65;67641;1280;1017176;-69
2024/01/22 09:45:21;;;;;;;;;;;;;;;11.01;35.72;99303.10;67554;1280;1016119;-69
2024/01/22 09:48:24;;;;;;;;;;;;;;;10.93;36.24;99296.54;67618;1278;1016195;-70
2024/01/22 09:51:27;;;;;;;;;;;;;;;11.08;36.29;99292.75;67573;1280;1016417;-69
2024/01/22 09:54:29;;;;;;;;;;;;;;;11.24;36.16;99289.92;67587;1280;1016243;-69
2024/01/22 09:57:32;;;;;;;;;;;;;;;11.33;35.80;99277.18;67632;1280;1016398;-70
2024/01/22 10:00:34;;;;;;;;;;;;;;;11.45;35.54;99276.32;67625;1280;1016278;-69
2024/01/22 10:03:37;;;;;;;;;;;;;;;11.45;35.69;99270.17;67596;1280;1016408;-69
2024/01/22 10:06:39;;;;;;;;;;;;;;;11.83;35.69;99263.80;67554;1280;1016265;-70
2024/01/22 10:09:42;;;;;;;;;;;;;;;11.95;35.38;99265.87;67637;1280;1016715;-70
2024/01/22 10:12:44;;;;;;;;;;;;;;;11.82;35.81;99264.75;67606;1280;1015951;-70
2024/01/22 10:15:47;;;;;;;;;;;;;;;11.89;35.56;99258.17;67605;1280;1018895;-69
2024/01/22 10:18:50;;;;;;;;;;;;;;;12.19;35.51;99254.16;67622;1280;1016288;-70
2024/01/22 10:21:52;;;;;;;;;;;;;;;12.93;34.94;99249.36;67617;1280;1017430;-70
2024/01/22 10:24:55;;;;;;;;;;;;;;;13.74;34.30;99248.33;67564;1280;1018861;-70
2024/01/22 10:27:57;;;;;;;;;;;;;;;14.24;33.89;99242.48;67544;1280;1016207;-68
2024/01/22 10:31:00;;;;;;;;;;;;;;;14.41;33.30;99230.73;67620;1280;1018498;-70
2024/01/22 10:34:02;;;;;;;;;;;;;;;14.40;32.64;99225.20;67634;1280;1016564;-69
2024/01/22 10:37:06;;;;;;;;;;;;;;;14.22;31.97;99223.66;67593;1280;1016313;-70
2024/01/22 10:40:11;;;;;;;;;;;;;;;13.90;31.80;99227.41;67615;1280;1016475;-70
2024/01/22 10:43:14;;;;;;;;;;;;;;;13.40;32.54;99224.60;67633;1280;1016334;-70
2024/01/22 10:46:17;;;;;;;;;;;;;;;13.43;32.29;99222.11;67607;1280;1018645;-70
2024/01/22 10:49:19;;;;;;;;;;;;;;;13.36;32.54;99215.73;67600;1280;1016472;-70
2024/01/22 10:52:22;;;;;;;;;;;;;;;13.43;32.30;99211.05;67555;1280;1016369;-70
2024/01/22 10:55:24;;;;;;;;;;;;;;;13.30;32.51;99209.05;67618;1280;1016509;-70
2024/01/22 10:58:27;;;;;;;;;;;;;;;13.35;32.44;99207.36;67647;1280;1016798;-70
2024/01/22 11:01:29;;;;;;;;;;;;;;;13.39;32.43;99200.73;67633;1280;1016298;-70
2024/01/22 11:04:32;;;;;;;;;;;;;;;13.09;32.79;99201.15;67586;1280;1016300;-72
2024/01/22 11:07:34;;;;;;;;;;;;;;;13.30;32.74;99190.95;67595;1280;1016858;-70
2024/01/22 11:10:37;;;;;;;;;;;;;;;13.37;32.32;99180.52;67609;1280;1016475;-70
2024/01/22 11:13:39;;;;;;;;;;;;;;;13.10;32.37;99173.86;67704;1280;1017382;-70
2024/01/22 11:16:42;;;;;;;;;;;;;;;12.59;33.11;99167.84;67572;1280;1016476;-70
2024/01/22 11:19:44;;;;;;;;;;;;;;;12.62;33.05;99157.61;67600;1280;1016446;-69
2024/01/22 11:22:47;;;;;;;;;;;;;;;12.66;33.00;99148.25;67646;1280;1016485;-70
2024/01/22 11:25:49;;;;;;;;;;;;;;;12.76;33.05;99145.20;67648;1280;1016479;-69
2024/01/22 11:28:52;;;;;;;;;;;;;;;12.53;32.98;99138.23;67569;1280;1015928;-69
2024/01/22 11:31:54;;;;;;;;;;;;;;;12.39;32.88;99134.36;67562;1280;1016374;-70
2024/01/22 11:34:57;;;;;;;;;;;;;;;12.52;33.03;99120.23;67614;1280;1018216;-71
2024/01/22 11:37:59;;;;;;;;;;;;;;;12.53;32.88;99108.95;67646;1280;1016360;-70
2024/01/22 11:41:02;;;;;;;;;;;;;;;12.60;32.65;99104.95;67580;1280;1016251;-70
2024/01/22 11:44:04;;;;;;;;;;;;;;;12.68;32.86;99103.41;67587;1280;1016447;-70
2024/01/22 11:47:09;;;;;;;;;;;;;;;13.06;32.56;99099.38;67634;1280;1016556;-70
2024/01/22 11:50:12;;;;;;;;;;;;;;;13.29;32.48;99109.70;67609;1280;1016366;-70
2024/01/22 11:53:14;;;;;;;;;;;;;;;13.53;31.30;99143.10;67567;1280;1016100;-70
2024/01/22 11:56:17;;;;;;;;;;;;;;;13.36;31.67;99143.16;67593;1280;1016395;-68
2024/01/22 11:59:19;;;;;;;;;;;;;;;13.39;32.23;99125.21;67614;1280;1016227;-69
2024/01/22 12:02:22;;;;;;;;;;;;;;;13.45;31.98;99127.62;67569;1280;1016547;-70
2024/01/22 12:05:24;;;;;;;;;;;;;;;13.49;31.20;99121.95;67584;1280;1016040;-71
2024/01/22 12:08:27;;;;;;;;;;;;;;;13.43;31.53;99114.61;67640;1280;1016850;-71
2024/01/22 12:11:29;;;;;;;;;;;;;;;13.30;31.13;99110.52;67623;1280;1016501;-70
2024/01/22 12:14:32;;;;;;;;;;;;;;;13.26;30.49;99096.80;67581;1280;1016308;-71
2024/01/22 12:17:34;;;;;;;;;;;;;;;13.17;31.13;99090.15;67579;1280;1016210;-71
2024/01/22 12:20:37;;;;;;;;;;;;;;;13.44;31.00;99084.15;67626;1280;1016497;-72
2024/01/22 12:23:39;;;;;;;;;;;;;;;13.49;30.84;99079.77;67610;1280;1016323;-70
2024/01/22 12:26:42;;;;;;;;;;;;;;;13.68;30.67;99071.95;67595;1280;1016310;-71
2024/01/22 12:29:44;;;;;;;;;;;;;;;13.83;30.29;99065.44;67597;1280;1016427;-71
2024/01/22 12:32:47;;;;;;;;;;;;;;;13.66;30.40;99061.56;67629;1280;1016501;-71
2024/01/22 12:35:51;;;;;;;;;;;;;;;13.84;30.85;99045.52;67620;1280;1016233;-71
2024/01/22 12:38:55;;;;;;;;;;;;;;;13.97;30.90;99035.33;67616;1278;1016204;-71
2024/01/22 12:41:58;;;;;;;;;;;;;;;14.01;30.74;99038.37;67625;1280;1016197;-71
2024/01/22 12:45:00;;;;;;;;;;;;;;;14.06;30.90;99029.89;67598;1280;1016469;-71
2024/01/22 12:48:03;;;;;;;;;;;;;;;13.90;30.87;99019.96;67579;1280;1016299;-71
2024/01/22 12:51:12;;;;;;;;;;;;;;;13.93;30.69;99025.89;67634;1280;1016275;-71
2024/01/22 12:54:14;;;;;;;;;;;;;;;14.06;30.80;99019.92;67570;1280;1016092;-71
2024/01/22 12:57:17;;;;;;;;;;;;;;;14.03;30.58;99012.15;67597;1280;1016493;-71
2024/01/22 13:00:19;;;;;;;;;;;;;;;14.21;30.64;99016.33;67609;1280;1016130;-70
2024/01/22 13:03:22;;;;;;;;;;;;;;;14.41;30.57;99018.41;67633;1280;1018644;-71
2024/01/22 13:06:24;;;;;;;;;;;;;;;14.45;29.91;99028.80;67610;1280;1016530;-71
2024/01/22 13:09:27;;;;;;;;;;;;;;;14.04;30.42;99026.55;67606;1280;1016858;-71
2024/01/22 13:12:29;;;;;;;;;;;;;;;13.72;31.10;99019.89;67615;1280;1016466;-71
2024/01/22 13:15:32;;;;;;;;;;;;;;;13.53;31.39;99017.13;67638;1280;1016446;-71
2024/01/22 13:18:34;;;;;;;;;;;;;;;13.50;31.04;99008.23;67580;1280;1018756;-71
2024/01/22 13:21:37;;;;;;;;;;;;;;;13.19;31.20;99002.95;67584;1281;1016359;-71
2024/01/22 13:24:42;;;;;;;;;;;;;;;12.95;30.87;98997.05;67621;1280;1016290;-71
2024/01/22 13:27:44;;;;;;;;;;;;;;;12.69;30.79;98988.80;67589;1280;1018402;-71
2024/01/22 13:30:47;;;;;;;;;;;;;;;13.06;30.55;98980.48;67555;1280;1016153;-71
2024/01/22 13:33:49;;;;;;;;;;;;;;;13.04;29.87;98970.93;67619;1280;1016352;-71
2024/01/22 13:36:52;;;;;;;;;;;;;;;12.39;29.89;98962.88;67644;1280;1016481;-71
2024/01/22 13:39:54;;;;;;;;;;;;;;;12.11;29.23;98951.17;67612;1280;1016936;-71
2024/01/22 13:42:57;;;;;;;;;;;;;;;11.89;29.71;98953.83;67574;1280;1016502;-71
2024/01/22 13:46:00;;;;;;;;;;;;;;;11.60;30.17;98949.48;67625;1280;1017028;-72
2024/01/22 13:49:03;;;;;;;;;;;;;;;11.28;29.92;98934.36;67576;1280;1015913;-71
2024/01/22 13:52:06;;;;;;;;;;;;;;;11.19;29.73;98924.71;67618;1280;1016312;-70
2024/01/22 13:55:09;;;;;;;;;;;;;;;11.48;29.38;98923.30;67620;1280;1016289;-70
2024/01/22 13:58:12;;;;;;;;;;;;;;;11.24;29.81;98917.95;67632;1280;1016333;-71
2024/01/22 14:01:14;;;;;;;;;;;;;;;11.12;29.46;98909.44;67596;1280;1016529;-71
2024/01/22 14:04:17;;;;;;;;;;;;;;;11.08;29.64;98904.27;67595;1280;1016348;-71
2024/01/22 14:07:19;;;;;;;;;;;;;;;11.01;30.06;98908.55;67588;1280;1016445;-72
2024/01/22 14:10:22;;;;;;;;;;;;;;;11.04;29.98;98909.55;67617;1280;1018063;-71
2024/01/22 14:13:24;;;;;;;;;;;;;;;11.06;29.89;98899.44;67609;1280;1016350;-70
2024/01/22 14:16:27;;;;;;;;;;;;;;;10.99;29.84;98905.36;67564;1280;1016147;-71
2024/01/22 14:19:32;;;;;;;;;;;;;;;10.92;29.80;98897.70;67572;1280;1016505;-69
2024/01/22 14:22:36;;;;;;;;;;;;;;;10.75;29.87;98901.20;67594;1280;1016507;-71
2024/01/22 14:25:39;;;;;;;;;;;;;;;10.67;30.41;98910.23;67562;1280;1018184;-70
2024/01/22 14:28:41;;;;;;;;;;;;;;;10.61;30.54;98920.20;67576;1280;1016546;-71
2024/01/22 14:31:44;;;;;;;;;;;;;;;10.49;30.03;98932.94;67609;1280;1016430;-71
2024/01/22 14:34:46;;;;;;;;;;;;;;;10.51;29.88;98943.52;67603;1280;1016312;-71
2024/01/22 14:37:49;;;;;;;;;;;;;;;10.52;30.23;98942.94;67616;1280;1016444;-71
2024/01/22 14:40:51;;;;;;;;;;;;;;;10.48;30.73;98941.40;67581;1280;1016460;-71
2024/01/22 14:43:54;;;;;;;;;;;;;;;10.44;30.86;98937.27;67597;1280;1016465;-71
2024/01/22 14:46:56;;;;;;;;;;;;;;;10.31;30.84;98930.30;67626;1280;1016441;-71
2024/01/22 14:49:59;;;;;;;;;;;;;;;10.14;31.48;98919.73;67605;1280;1016346;-71
2024/01/22 14:53:01;;;;;;;;;;;;;;;10.01;31.26;98890.08;67586;1280;1016460;-69
2024/01/22 14:56:04;;;;;;;;;;;;;;;10.10;31.60;98882.98;67590;1280;1016478;-71
2024/01/22 14:59:06;;;;;;;;;;;;;;;10.25;31.55;98871.95;67637;1281;1018882;-71
2024/01/22 15:02:09;;;;;;;;;;;;;;;10.36;30.91;98853.48;67636;1280;1016470;-71
2024/01/22 15:05:12;;;;;;;;;;;;;;;10.26;30.93;98838.16;67596;1280;1016400;-71
2024/01/22 15:08:15;;;;;;;;;;;;;;;10.26;31.07;98819.65;67626;1280;1016427;-71
2024/01/22 15:11:17;;;;;;;;;;;;;;;10.24;30.68;98797.90;67581;1280;1016657;-71
2024/01/22 15:14:22;;;;;;;;;;;;;;;10.33;30.40;98785.51;67574;1280;1016449;-71
2024/01/22 15:17:24;;;;;;;;;;;;;;;10.37;30.32;98788.75;67625;1280;1016318;-71
2024/01/22 15:20:27;;;;;;;;;;;;;;;10.33;30.27;98789.85;67620;1280;1018671;-71
2024/01/22 15:23:29;;;;;;;;;;;;;;;10.30;30.27;98780.08;67559;1280;1018882;-70
2024/01/22 15:26:32;;;;;;;;;;;;;;;10.21;30.36;98769.95;67561;1280;1016535;-71
2024/01/22 15:29:34;;;;;;;;;;;;;;;10.26;30.23;98760.39;67605;1280;1016159;-71
2024/01/22 15:32:37;;;;;;;;;;;;;;;10.21;30.67;98749.32;67619;1280;1016021;-71
2024/01/22 15:35:39;;;;;;;;;;;;;;;10.27;30.64;98738.48;67579;1280;1016495;-71
2024/01/22 15:38:45;;;;;;;;;;;;;;;10.36;30.90;98730.79;65164;1279;5366305;-70